sensor_id;sensor_type;location;lat;lon;timestamp;P1;durP1;ratioP1;P2;durP2;ratioP2
66087;SDS011;52872;52.994;6.940;2023-04-09T00:02:02;28.67;;;19.90;;
66087;SDS011;52872;52.994;6.940;2023-04-09T00:04:29;30.75;;;19.85;;
66087;SDS011;52872;52.994;6.940;2023-04-09T00:06:56;31.88;;;18.73;;
66087;SDS011;52872;52.994;6.940;2023-04-09T00:09:23;29.58;;;20.23;;
66087;SDS011;52872;52.994;6.940;2023-04-09T00:11:50;29.40;;;18.83;;
66087;SDS011;52872;52.994;6.940;2023-04-09T00:14:17;29.90;;;20.45;;
66087;SDS011;52872;52.994;6.940;2023-04-09T00:16:44;31.65;;;21.20;;
66087;SDS011;52872;52.994;6.940;2023-04-09T00:19:11;33.28;;;20.90;;
66087;SDS011;52872;52.994;6.940;2023-04-09T00:21:38;29.35;;;19.98;;
66087;SDS011;52872;52.994;6.940;2023-04-09T00:24:05;32.55;;;20.90;;
66087;SDS011;52872;52.994;6.940;2023-04-09T00:26:32;30.13;;;20.10;;
66087;SDS011;52872;52.994;6.940;2023-04-09T00:28:59;34.08;;;21.83;;
66087;SDS011;52872;52.994;6.940;2023-04-09T00:31:26;29.38;;;20.63;;
66087;SDS011;52872;52.994;6.940;2023-04-09T00:33:53;33.30;;;20.95;;
66087;SDS011;52872;52.994;6.940;2023-04-09T00:36:20;32.45;;;22.60;;
66087;SDS011;52872;52.994;6.940;2023-04-09T00:38:47;37.33;;;21.73;;
66087;SDS011;52872;52.994;6.940;2023-04-09T00:41:16;32.67;;;19.92;;
66087;SDS011;52872;52.994;6.940;2023-04-09T00:43:43;33.80;;;21.23;;
66087;SDS011;52872;52.994;6.940;2023-04-09T00:46:10;36.88;;;22.45;;
66087;SDS011;52872;52.994;6.940;2023-04-09T00:48:38;33.55;;;22.27;;
66087;SDS011;52872;52.994;6.940;2023-04-09T00:51:06;33.10;;;22.58;;
66087;SDS011;52872;52.994;6.940;2023-04-09T00:53:33;33.50;;;22.73;;
66087;SDS011;52872;52.994;6.940;2023-04-09T00:56:00;36.63;;;23.08;;
66087;SDS011;52872;52.994;6.940;2023-04-09T00:58:28;36.25;;;23.80;;
66087;SDS011;52872;52.994;6.940;2023-04-09T01:00:55;36.03;;;22.70;;
66087;SDS011;52872;52.994;6.940;2023-04-09T01:03:23;39.80;;;24.23;;
66087;SDS011;52872;52.994;6.940;2023-04-09T01:05:57;39.83;;;25.42;;
66087;SDS011;52872;52.994;6.940;2023-04-09T01:11:01;39.78;;;25.27;;
66087;SDS011;52872;52.994;6.940;2023-04-09T01:16:43;38.28;;;24.73;;
66087;SDS011;52872;52.994;6.940;2023-04-09T01:22:23;41.13;;;25.73;;
66087;SDS011;52872;52.994;6.940;2023-04-09T01:28:13;37.15;;;24.70;;
66087;SDS011;52872;52.994;6.940;2023-04-09T01:30:49;38.00;;;23.05;;
66087;SDS011;52872;52.994;6.940;2023-04-09T01:33:18;45.78;;;27.25;;
66087;SDS011;52872;52.994;6.940;2023-04-09T01:35:47;37.15;;;23.80;;
66087;SDS011;52872;52.994;6.940;2023-04-09T01:38:17;41.25;;;26.33;;
66087;SDS011;52872;52.994;6.940;2023-04-09T01:40:45;43.28;;;26.08;;
66087;SDS011;52872;52.994;6.940;2023-04-09T01:43:14;45.53;;;27.50;;
66087;SDS011;52872;52.994;6.940;2023-04-09T01:45:41;45.72;;;27.42;;
66087;SDS011;52872;52.994;6.940;2023-04-09T01:48:13;45.92;;;27.63;;
66087;SDS011;52872;52.994;6.940;2023-04-09T01:50:41;44.65;;;27.38;;
66087;SDS011;52872;52.994;6.940;2023-04-09T01:53:09;40.30;;;24.58;;
66087;SDS011;52872;52.994;6.940;2023-04-09T01:55:36;37.25;;;23.58;;
66087;SDS011;52872;52.994;6.940;2023-04-09T01:58:03;45.38;;;25.98;;
66087;SDS011;52872;52.994;6.940;2023-04-09T02:00:33;42.67;;;26.38;;
66087;SDS011;52872;52.994;6.940;2023-04-09T02:05:37;41.23;;;26.33;;
66087;SDS011;52872;52.994;6.940;2023-04-09T02:08:10;45.03;;;26.60;;
66087;SDS011;52872;52.994;6.940;2023-04-09T02:10:41;43.25;;;28.05;;
66087;SDS011;52872;52.994;6.940;2023-04-09T02:13:12;44.75;;;26.48;;
66087;SDS011;52872;52.994;6.940;2023-04-09T02:15:43;42.85;;;25.33;;
66087;SDS011;52872;52.994;6.940;2023-04-09T02:20:53;43.08;;;26.58;;
66087;SDS011;52872;52.994;6.940;2023-04-09T02:23:24;45.72;;;27.65;;
66087;SDS011;52872;52.994;6.940;2023-04-09T02:25:52;43.30;;;27.52;;
66087;SDS011;52872;52.994;6.940;2023-04-09T02:28:19;41.90;;;26.55;;
66087;SDS011;52872;52.994;6.940;2023-04-09T02:30:46;42.10;;;26.13;;
66087;SDS011;52872;52.994;6.940;2023-04-09T02:33:13;42.05;;;27.55;;
66087;SDS011;52872;52.994;6.940;2023-04-09T02:35:40;44.28;;;27.20;;
66087;SDS011;52872;52.994;6.940;2023-04-09T02:38:07;42.20;;;27.58;;
66087;SDS011;52872;52.994;6.940;2023-04-09T02:40:39;43.05;;;25.10;;
66087;SDS011;52872;52.994;6.940;2023-04-09T02:43:09;42.05;;;26.50;;
66087;SDS011;52872;52.994;6.940;2023-04-09T02:45:36;43.58;;;27.33;;
66087;SDS011;52872;52.994;6.940;2023-04-09T02:48:03;42.47;;;26.88;;
66087;SDS011;52872;52.994;6.940;2023-04-09T02:50:33;40.28;;;27.00;;
66087;SDS011;52872;52.994;6.940;2023-04-09T02:53:01;47.65;;;29.15;;
66087;SDS011;52872;52.994;6.940;2023-04-09T02:55:28;49.20;;;29.85;;
66087;SDS011;52872;52.994;6.940;2023-04-09T02:57:55;46.92;;;26.90;;
66087;SDS011;52872;52.994;6.940;2023-04-09T03:00:22;42.97;;;26.67;;
66087;SDS011;52872;52.994;6.940;2023-04-09T03:02:49;48.30;;;29.33;;
66087;SDS011;52872;52.994;6.940;2023-04-09T03:05:16;50.05;;;28.75;;
66087;SDS011;52872;52.994;6.940;2023-04-09T03:07:43;43.67;;;28.42;;
66087;SDS011;52872;52.994;6.940;2023-04-09T03:10:10;50.30;;;28.48;;
66087;SDS011;52872;52.994;6.940;2023-04-09T03:12:36;43.95;;;26.88;;
66087;SDS011;52872;52.994;6.940;2023-04-09T03:15:03;49.97;;;27.92;;
66087;SDS011;52872;52.994;6.940;2023-04-09T03:17:31;41.90;;;27.63;;
66087;SDS011;52872;52.994;6.940;2023-04-09T03:19:58;44.30;;;27.85;;
66087;SDS011;52872;52.994;6.940;2023-04-09T03:22:36;44.58;;;28.77;;
66087;SDS011;52872;52.994;6.940;2023-04-09T03:25:12;44.03;;;27.77;;
66087;SDS011;52872;52.994;6.940;2023-04-09T03:27:39;51.72;;;29.83;;
66087;SDS011;52872;52.994;6.940;2023-04-09T03:30:07;46.80;;;27.38;;
66087;SDS011;52872;52.994;6.940;2023-04-09T03:32:40;50.00;;;29.23;;
66087;SDS011;52872;52.994;6.940;2023-04-09T03:35:11;50.38;;;30.13;;
66087;SDS011;52872;52.994;6.940;2023-04-09T03:37:40;49.95;;;30.00;;
66087;SDS011;52872;52.994;6.940;2023-04-09T03:40:13;49.55;;;28.88;;
66087;SDS011;52872;52.994;6.940;2023-04-09T03:42:43;55.20;;;30.58;;
66087;SDS011;52872;52.994;6.940;2023-04-09T03:45:13;53.38;;;30.67;;
66087;SDS011;52872;52.994;6.940;2023-04-09T03:47:43;54.63;;;32.28;;
66087;SDS011;52872;52.994;6.940;2023-04-09T03:50:11;51.25;;;30.00;;
66087;SDS011;52872;52.994;6.940;2023-04-09T03:52:50;51.33;;;30.75;;
66087;SDS011;52872;52.994;6.940;2023-04-09T03:55:17;56.10;;;31.95;;
66087;SDS011;52872;52.994;6.940;2023-04-09T03:57:46;53.72;;;31.58;;
66087;SDS011;52872;52.994;6.940;2023-04-09T04:00:16;58.60;;;31.50;;
66087;SDS011;52872;52.994;6.940;2023-04-09T04:02:49;51.85;;;31.33;;
66087;SDS011;52872;52.994;6.940;2023-04-09T04:05:32;55.58;;;32.03;;
66087;SDS011;52872;52.994;6.940;2023-04-09T04:08:04;53.13;;;32.35;;
66087;SDS011;52872;52.994;6.940;2023-04-09T04:10:32;53.05;;;30.55;;
66087;SDS011;52872;52.994;6.940;2023-04-09T04:13:01;59.00;;;32.42;;
66087;SDS011;52872;52.994;6.940;2023-04-09T04:15:40;60.85;;;33.47;;
66087;SDS011;52872;52.994;6.940;2023-04-09T04:18:10;56.88;;;31.05;;
66087;SDS011;52872;52.994;6.940;2023-04-09T04:20:42;56.83;;;32.10;;
66087;SDS011;52872;52.994;6.940;2023-04-09T04:23:12;59.45;;;33.60;;
66087;SDS011;52872;52.994;6.940;2023-04-09T04:25:47;53.00;;;32.03;;
66087;SDS011;52872;52.994;6.940;2023-04-09T04:28:21;54.88;;;32.95;;
66087;SDS011;52872;52.994;6.940;2023-04-09T04:30:49;54.92;;;32.40;;
66087;SDS011;52872;52.994;6.940;2023-04-09T04:33:16;57.97;;;31.23;;
66087;SDS011;52872;52.994;6.940;2023-04-09T04:35:49;54.38;;;31.85;;
66087;SDS011;52872;52.994;6.940;2023-04-09T04:38:30;54.08;;;30.40;;
66087;SDS011;52872;52.994;6.940;2023-04-09T04:41:00;57.35;;;31.13;;
66087;SDS011;52872;52.994;6.940;2023-04-09T04:43:29;54.05;;;33.97;;
66087;SDS011;52872;52.994;6.940;2023-04-09T04:45:58;59.83;;;34.10;;
66087;SDS011;52872;52.994;6.940;2023-04-09T04:48:28;57.60;;;32.72;;
66087;SDS011;52872;52.994;6.940;2023-04-09T04:50:57;55.80;;;32.47;;
66087;SDS011;52872;52.994;6.940;2023-04-09T04:53:29;56.85;;;33.70;;
66087;SDS011;52872;52.994;6.940;2023-04-09T04:55:59;55.47;;;33.67;;
66087;SDS011;52872;52.994;6.940;2023-04-09T04:58:27;51.45;;;30.33;;
66087;SDS011;52872;52.994;6.940;2023-04-09T05:00:58;55.40;;;31.88;;
66087;SDS011;52872;52.994;6.940;2023-04-09T05:03:26;53.70;;;33.35;;
66087;SDS011;52872;52.994;6.940;2023-04-09T05:06:02;52.03;;;31.48;;
66087;SDS011;52872;52.994;6.940;2023-04-09T05:08:37;55.40;;;33.03;;
66087;SDS011;52872;52.994;6.940;2023-04-09T05:11:04;60.25;;;36.50;;
66087;SDS011;52872;52.994;6.940;2023-04-09T05:13:35;58.33;;;33.85;;
66087;SDS011;52872;52.994;6.940;2023-04-09T05:16:06;60.20;;;36.28;;
66087;SDS011;52872;52.994;6.940;2023-04-09T05:18:34;60.17;;;35.00;;
66087;SDS011;52872;52.994;6.940;2023-04-09T05:21:01;53.13;;;33.15;;
66087;SDS011;52872;52.994;6.940;2023-04-09T05:23:30;56.42;;;35.63;;
66087;SDS011;52872;52.994;6.940;2023-04-09T05:25:58;53.83;;;33.92;;
66087;SDS011;52872;52.994;6.940;2023-04-09T05:28:36;58.95;;;33.95;;
66087;SDS011;52872;52.994;6.940;2023-04-09T05:31:14;57.75;;;33.78;;
66087;SDS011;52872;52.994;6.940;2023-04-09T05:33:50;58.58;;;32.65;;
66087;SDS011;52872;52.994;6.940;2023-04-09T05:36:23;59.72;;;35.33;;
66087;SDS011;52872;52.994;6.940;2023-04-09T05:38:50;49.75;;;32.60;;
66087;SDS011;52872;52.994;6.940;2023-04-09T05:41:18;45.00;;;28.08;;
66087;SDS011;52872;52.994;6.940;2023-04-09T05:44:08;42.92;;;28.55;;
66087;SDS011;52872;52.994;6.940;2023-04-09T05:46:37;45.65;;;29.75;;
66087;SDS011;52872;52.994;6.940;2023-04-09T05:49:05;42.38;;;27.92;;
66087;SDS011;52872;52.994;6.940;2023-04-09T05:51:34;46.08;;;26.25;;
66087;SDS011;52872;52.994;6.940;2023-04-09T05:54:02;38.35;;;24.60;;
66087;SDS011;52872;52.994;6.940;2023-04-09T05:56:33;42.40;;;26.25;;
66087;SDS011;52872;52.994;6.940;2023-04-09T05:59:00;46.15;;;29.95;;
66087;SDS011;52872;52.994;6.940;2023-04-09T06:01:27;50.17;;;31.02;;
66087;SDS011;52872;52.994;6.940;2023-04-09T06:03:54;44.88;;;29.38;;
66087;SDS011;52872;52.994;6.940;2023-04-09T06:06:23;48.83;;;31.17;;
66087;SDS011;52872;52.994;6.940;2023-04-09T06:08:50;48.28;;;30.55;;
66087;SDS011;52872;52.994;6.940;2023-04-09T06:11:17;46.33;;;29.10;;
66087;SDS011;52872;52.994;6.940;2023-04-09T06:13:44;43.80;;;27.77;;
66087;SDS011;52872;52.994;6.940;2023-04-09T06:16:11;47.00;;;29.55;;
66087;SDS011;52872;52.994;6.940;2023-04-09T06:18:38;40.63;;;26.35;;
66087;SDS011;52872;52.994;6.940;2023-04-09T06:21:07;44.05;;;28.35;;
66087;SDS011;52872;52.994;6.940;2023-04-09T06:23:35;43.08;;;27.75;;
66087;SDS011;52872;52.994;6.940;2023-04-09T06:26:02;41.22;;;27.92;;
66087;SDS011;52872;52.994;6.940;2023-04-09T06:28:29;43.80;;;28.20;;
66087;SDS011;52872;52.994;6.940;2023-04-09T06:30:57;38.63;;;27.27;;
66087;SDS011;52872;52.994;6.940;2023-04-09T06:33:24;42.30;;;28.67;;
66087;SDS011;52872;52.994;6.940;2023-04-09T06:35:51;40.08;;;25.90;;
66087;SDS011;52872;52.994;6.940;2023-04-09T06:38:18;38.05;;;26.00;;
66087;SDS011;52872;52.994;6.940;2023-04-09T06:40:45;37.15;;;26.33;;
66087;SDS011;52872;52.994;6.940;2023-04-09T06:43:12;40.75;;;29.13;;
66087;SDS011;52872;52.994;6.940;2023-04-09T06:45:47;41.70;;;29.10;;
66087;SDS011;52872;52.994;6.940;2023-04-09T06:48:14;39.65;;;28.63;;
66087;SDS011;52872;52.994;6.940;2023-04-09T06:50:41;36.35;;;25.92;;
66087;SDS011;52872;52.994;6.940;2023-04-09T06:53:07;37.40;;;27.25;;
66087;SDS011;52872;52.994;6.940;2023-04-09T06:55:34;35.35;;;24.30;;
66087;SDS011;52872;52.994;6.940;2023-04-09T06:58:01;31.77;;;23.00;;
66087;SDS011;52872;52.994;6.940;2023-04-09T07:00:28;34.90;;;27.40;;
66087;SDS011;52872;52.994;6.940;2023-04-09T07:02:56;35.70;;;25.95;;
66087;SDS011;52872;52.994;6.940;2023-04-09T07:05:23;38.30;;;26.65;;
66087;SDS011;52872;52.994;6.940;2023-04-09T07:07:50;33.50;;;24.63;;
66087;SDS011;52872;52.994;6.940;2023-04-09T07:10:17;35.08;;;26.85;;
66087;SDS011;52872;52.994;6.940;2023-04-09T07:12:44;36.20;;;25.50;;
66087;SDS011;52872;52.994;6.940;2023-04-09T07:15:10;32.33;;;23.13;;
66087;SDS011;52872;52.994;6.940;2023-04-09T07:17:37;35.95;;;26.27;;
66087;SDS011;52872;52.994;6.940;2023-04-09T07:20:05;37.15;;;25.35;;
66087;SDS011;52872;52.994;6.940;2023-04-09T07:22:32;34.35;;;25.25;;
66087;SDS011;52872;52.994;6.940;2023-04-09T07:24:59;36.17;;;25.05;;
66087;SDS011;52872;52.994;6.940;2023-04-09T07:27:26;35.08;;;26.20;;
66087;SDS011;52872;52.994;6.940;2023-04-09T07:29:54;34.42;;;23.90;;
66087;SDS011;52872;52.994;6.940;2023-04-09T07:32:23;31.60;;;24.20;;
66087;SDS011;52872;52.994;6.940;2023-04-09T07:34:51;30.17;;;23.70;;
66087;SDS011;52872;52.994;6.940;2023-04-09T07:37:18;33.17;;;25.83;;
66087;SDS011;52872;52.994;6.940;2023-04-09T07:39:46;31.58;;;24.13;;
66087;SDS011;52872;52.994;6.940;2023-04-09T07:42:13;29.73;;;22.60;;
66087;SDS011;52872;52.994;6.940;2023-04-09T07:44:40;28.73;;;23.60;;
66087;SDS011;52872;52.994;6.940;2023-04-09T07:47:07;29.02;;;23.65;;
66087;SDS011;52872;52.994;6.940;2023-04-09T07:49:35;31.95;;;25.20;;
66087;SDS011;52872;52.994;6.940;2023-04-09T07:52:03;30.75;;;24.35;;
66087;SDS011;52872;52.994;6.940;2023-04-09T07:54:31;30.95;;;24.50;;
66087;SDS011;52872;52.994;6.940;2023-04-09T07:56:59;34.08;;;26.55;;
66087;SDS011;52872;52.994;6.940;2023-04-09T07:59:27;31.33;;;25.70;;
66087;SDS011;52872;52.994;6.940;2023-04-09T08:01:54;33.30;;;26.17;;
66087;SDS011;52872;52.994;6.940;2023-04-09T08:04:21;31.08;;;25.42;;
66087;SDS011;52872;52.994;6.940;2023-04-09T08:06:49;30.60;;;24.25;;
66087;SDS011;52872;52.994;6.940;2023-04-09T08:09:16;29.13;;;23.70;;
66087;SDS011;52872;52.994;6.940;2023-04-09T08:11:43;32.70;;;26.92;;
66087;SDS011;52872;52.994;6.940;2023-04-09T08:14:11;30.58;;;24.08;;
66087;SDS011;52872;52.994;6.940;2023-04-09T08:16:40;31.30;;;27.35;;
66087;SDS011;52872;52.994;6.940;2023-04-09T08:19:12;31.50;;;27.97;;
66087;SDS011;52872;52.994;6.940;2023-04-09T08:21:42;30.92;;;26.83;;
66087;SDS011;52872;52.994;6.940;2023-04-09T08:24:09;32.28;;;28.02;;
66087;SDS011;52872;52.994;6.940;2023-04-09T08:26:37;33.38;;;28.52;;
66087;SDS011;52872;52.994;6.940;2023-04-09T08:29:05;34.40;;;28.55;;
66087;SDS011;52872;52.994;6.940;2023-04-09T08:31:33;35.83;;;30.15;;
66087;SDS011;52872;52.994;6.940;2023-04-09T08:34:01;32.60;;;26.92;;
66087;SDS011;52872;52.994;6.940;2023-04-09T08:36:29;33.95;;;26.98;;
66087;SDS011;52872;52.994;6.940;2023-04-09T08:38:57;31.60;;;26.58;;
66087;SDS011;52872;52.994;6.940;2023-04-09T08:41:26;32.85;;;27.75;;
66087;SDS011;52872;52.994;6.940;2023-04-09T08:43:54;33.17;;;27.27;;
66087;SDS011;52872;52.994;6.940;2023-04-09T08:46:24;34.83;;;28.40;;
66087;SDS011;52872;52.994;6.940;2023-04-09T08:48:52;35.88;;;28.63;;
66087;SDS011;52872;52.994;6.940;2023-04-09T08:51:20;35.65;;;29.27;;
66087;SDS011;52872;52.994;6.940;2023-04-09T08:53:54;34.03;;;27.38;;
66087;SDS011;52872;52.994;6.940;2023-04-09T08:56:23;33.90;;;26.20;;
66087;SDS011;52872;52.994;6.940;2023-04-09T08:58:51;32.70;;;26.40;;
66087;SDS011;52872;52.994;6.940;2023-04-09T09:03:53;30.38;;;24.35;;
66087;SDS011;52872;52.994;6.940;2023-04-09T09:06:25;33.03;;;24.77;;
66087;SDS011;52872;52.994;6.940;2023-04-09T09:09:01;33.40;;;24.77;;
66087;SDS011;52872;52.994;6.940;2023-04-09T09:11:35;34.92;;;26.35;;
66087;SDS011;52872;52.994;6.940;2023-04-09T09:14:10;31.60;;;25.85;;
66087;SDS011;52872;52.994;6.940;2023-04-09T09:16:38;35.92;;;27.33;;
66087;SDS011;52872;52.994;6.940;2023-04-09T09:19:30;30.88;;;23.30;;
66087;SDS011;52872;52.994;6.940;2023-04-09T09:22:00;33.80;;;26.33;;
66087;SDS011;52872;52.994;6.940;2023-04-09T09:24:29;32.50;;;25.65;;
66087;SDS011;52872;52.994;6.940;2023-04-09T09:26:58;34.03;;;25.10;;
66087;SDS011;52872;52.994;6.940;2023-04-09T09:29:25;30.92;;;22.48;;
66087;SDS011;52872;52.994;6.940;2023-04-09T09:31:54;31.48;;;23.38;;
66087;SDS011;52872;52.994;6.940;2023-04-09T09:34:22;34.10;;;25.45;;
66087;SDS011;52872;52.994;6.940;2023-04-09T09:36:50;33.08;;;24.90;;
66087;SDS011;52872;52.994;6.940;2023-04-09T09:39:17;35.20;;;26.40;;
66087;SDS011;52872;52.994;6.940;2023-04-09T09:41:44;31.05;;;24.05;;
66087;SDS011;52872;52.994;6.940;2023-04-09T09:44:29;31.35;;;24.17;;
66087;SDS011;52872;52.994;6.940;2023-04-09T09:46:57;34.13;;;24.88;;
66087;SDS011;52872;52.994;6.940;2023-04-09T09:49:24;31.55;;;24.00;;
66087;SDS011;52872;52.994;6.940;2023-04-09T09:51:51;34.80;;;26.25;;
66087;SDS011;52872;52.994;6.940;2023-04-09T09:54:22;36.83;;;28.17;;
66087;SDS011;52872;52.994;6.940;2023-04-09T09:56:54;36.15;;;26.17;;
66087;SDS011;52872;52.994;6.940;2023-04-09T09:59:29;35.83;;;27.95;;
66087;SDS011;52872;52.994;6.940;2023-04-09T10:02:03;37.08;;;26.90;;
66087;SDS011;52872;52.994;6.940;2023-04-09T10:04:34;38.45;;;27.20;;
66087;SDS011;52872;52.994;6.940;2023-04-09T10:07:03;34.22;;;24.63;;
66087;SDS011;52872;52.994;6.940;2023-04-09T10:09:41;36.22;;;25.33;;
66087;SDS011;52872;52.994;6.940;2023-04-09T10:12:13;34.78;;;25.95;;
66087;SDS011;52872;52.994;6.940;2023-04-09T10:14:41;35.38;;;24.83;;
66087;SDS011;52872;52.994;6.940;2023-04-09T10:17:08;30.63;;;22.75;;
66087;SDS011;52872;52.994;6.940;2023-04-09T10:19:40;31.00;;;22.65;;
66087;SDS011;52872;52.994;6.940;2023-04-09T10:22:12;29.20;;;21.58;;
66087;SDS011;52872;52.994;6.940;2023-04-09T10:24:44;29.27;;;21.50;;
66087;SDS011;52872;52.994;6.940;2023-04-09T10:27:13;28.23;;;20.63;;
66087;SDS011;52872;52.994;6.940;2023-04-09T10:29:43;32.58;;;23.83;;
66087;SDS011;52872;52.994;6.940;2023-04-09T10:32:12;28.90;;;21.67;;
66087;SDS011;52872;52.994;6.940;2023-04-09T10:34:46;33.70;;;24.90;;
66087;SDS011;52872;52.994;6.940;2023-04-09T10:37:21;28.42;;;21.60;;
66087;SDS011;52872;52.994;6.940;2023-04-09T10:39:50;27.90;;;20.63;;
66087;SDS011;52872;52.994;6.940;2023-04-09T10:42:19;28.65;;;23.58;;
66087;SDS011;52872;52.994;6.940;2023-04-09T10:47:40;31.05;;;22.90;;
66087;SDS011;52872;52.994;6.940;2023-04-09T10:50:15;29.52;;;22.52;;
66087;SDS011;52872;52.994;6.940;2023-04-09T10:52:44;30.55;;;22.33;;
66087;SDS011;52872;52.994;6.940;2023-04-09T10:55:28;29.90;;;21.77;;
66087;SDS011;52872;52.994;6.940;2023-04-09T10:57:56;27.83;;;21.17;;
66087;SDS011;52872;52.994;6.940;2023-04-09T11:00:23;30.73;;;24.75;;
66087;SDS011;52872;52.994;6.940;2023-04-09T11:03:34;27.88;;;21.90;;
66087;SDS011;52872;52.994;6.940;2023-04-09T11:08:27;29.23;;;23.65;;
66087;SDS011;52872;52.994;6.940;2023-04-09T11:10:55;27.70;;;20.98;;
66087;SDS011;52872;52.994;6.940;2023-04-09T11:13:23;28.20;;;21.70;;
66087;SDS011;52872;52.994;6.940;2023-04-09T11:15:50;26.25;;;20.13;;
66087;SDS011;52872;52.994;6.940;2023-04-09T11:18:21;25.58;;;19.33;;
66087;SDS011;52872;52.994;6.940;2023-04-09T11:20:53;24.00;;;19.00;;
66087;SDS011;52872;52.994;6.940;2023-04-09T11:23:21;23.58;;;18.38;;
66087;SDS011;52872;52.994;6.940;2023-04-09T11:25:49;22.55;;;18.48;;
66087;SDS011;52872;52.994;6.940;2023-04-09T11:28:17;23.25;;;18.92;;
66087;SDS011;52872;52.994;6.940;2023-04-09T11:30:45;23.08;;;18.52;;
66087;SDS011;52872;52.994;6.940;2023-04-09T11:33:12;23.20;;;19.20;;
66087;SDS011;52872;52.994;6.940;2023-04-09T11:35:40;21.38;;;15.35;;
66087;SDS011;52872;52.994;6.940;2023-04-09T11:38:08;19.83;;;15.88;;
66087;SDS011;52872;52.994;6.940;2023-04-09T11:40:36;21.88;;;16.95;;
66087;SDS011;52872;52.994;6.940;2023-04-09T11:43:13;20.80;;;16.13;;
66087;SDS011;52872;52.994;6.940;2023-04-09T11:45:46;21.40;;;19.05;;
66087;SDS011;52872;52.994;6.940;2023-04-09T11:48:14;22.90;;;15.82;;
66087;SDS011;52872;52.994;6.940;2023-04-09T11:50:43;19.05;;;13.85;;
66087;SDS011;52872;52.994;6.940;2023-04-09T11:53:14;18.20;;;14.65;;
66087;SDS011;52872;52.994;6.940;2023-04-09T11:55:48;18.67;;;14.95;;
66087;SDS011;52872;52.994;6.940;2023-04-09T11:58:17;17.17;;;14.43;;
66087;SDS011;52872;52.994;6.940;2023-04-09T12:00:44;19.33;;;14.90;;
66087;SDS011;52872;52.994;6.940;2023-04-09T12:03:11;16.23;;;13.63;;
66087;SDS011;52872;52.994;6.940;2023-04-09T12:05:39;18.38;;;15.18;;
66087;SDS011;52872;52.994;6.940;2023-04-09T12:08:16;15.88;;;12.73;;
66087;SDS011;52872;52.994;6.940;2023-04-09T12:10:48;18.13;;;15.02;;
66087;SDS011;52872;52.994;6.940;2023-04-09T12:13:18;16.15;;;13.82;;
66087;SDS011;52872;52.994;6.940;2023-04-09T12:15:47;17.63;;;14.23;;
66087;SDS011;52872;52.994;6.940;2023-04-09T12:18:14;17.23;;;14.35;;
66087;SDS011;52872;52.994;6.940;2023-04-09T12:20:42;15.63;;;13.10;;
66087;SDS011;52872;52.994;6.940;2023-04-09T12:23:10;15.95;;;12.45;;
66087;SDS011;52872;52.994;6.940;2023-04-09T12:25:39;15.77;;;12.63;;
66087;SDS011;52872;52.994;6.940;2023-04-09T12:28:11;16.35;;;13.18;;
66087;SDS011;52872;52.994;6.940;2023-04-09T12:30:41;16.13;;;13.40;;
66087;SDS011;52872;52.994;6.940;2023-04-09T12:33:08;15.80;;;12.68;;
66087;SDS011;52872;52.994;6.940;2023-04-09T12:35:36;15.98;;;12.32;;
66087;SDS011;52872;52.994;6.940;2023-04-09T12:38:04;17.40;;;14.07;;
66087;SDS011;52872;52.994;6.940;2023-04-09T12:40:31;15.90;;;12.32;;
66087;SDS011;52872;52.994;6.940;2023-04-09T12:42:58;16.27;;;13.05;;
66087;SDS011;52872;52.994;6.940;2023-04-09T12:45:25;18.02;;;13.05;;
66087;SDS011;52872;52.994;6.940;2023-04-09T12:47:53;17.90;;;14.23;;
66087;SDS011;52872;52.994;6.940;2023-04-09T12:50:20;14.75;;;12.18;;
66087;SDS011;52872;52.994;6.940;2023-04-09T12:52:47;17.38;;;14.18;;
66087;SDS011;52872;52.994;6.940;2023-04-09T12:55:14;17.27;;;14.48;;
66087;SDS011;52872;52.994;6.940;2023-04-09T12:57:42;18.13;;;14.35;;
66087;SDS011;52872;52.994;6.940;2023-04-09T13:00:10;16.70;;;13.45;;
66087;SDS011;52872;52.994;6.940;2023-04-09T13:02:38;19.27;;;15.60;;
66087;SDS011;52872;52.994;6.940;2023-04-09T13:05:05;15.20;;;12.68;;
66087;SDS011;52872;52.994;6.940;2023-04-09T13:07:32;16.05;;;12.93;;
66087;SDS011;52872;52.994;6.940;2023-04-09T13:09:59;16.10;;;13.57;;
66087;SDS011;52872;52.994;6.940;2023-04-09T13:12:26;14.48;;;12.60;;
66087;SDS011;52872;52.994;6.940;2023-04-09T13:14:53;14.65;;;12.55;;
66087;SDS011;52872;52.994;6.940;2023-04-09T13:17:21;16.05;;;13.30;;
66087;SDS011;52872;52.994;6.940;2023-04-09T13:19:48;14.40;;;12.07;;
66087;SDS011;52872;52.994;6.940;2023-04-09T13:22:17;16.20;;;12.88;;
66087;SDS011;52872;52.994;6.940;2023-04-09T13:24:44;15.02;;;12.00;;
66087;SDS011;52872;52.994;6.940;2023-04-09T13:27:11;14.40;;;12.02;;
66087;SDS011;52872;52.994;6.940;2023-04-09T13:29:38;15.45;;;11.90;;
66087;SDS011;52872;52.994;6.940;2023-04-09T13:32:05;17.95;;;13.55;;
66087;SDS011;52872;52.994;6.940;2023-04-09T13:34:36;15.40;;;12.00;;
66087;SDS011;52872;52.994;6.940;2023-04-09T13:37:04;14.82;;;11.95;;
66087;SDS011;52872;52.994;6.940;2023-04-09T13:39:31;14.48;;;12.20;;
66087;SDS011;52872;52.994;6.940;2023-04-09T13:41:58;15.60;;;12.27;;
66087;SDS011;52872;52.994;6.940;2023-04-09T13:44:26;15.15;;;12.57;;
66087;SDS011;52872;52.994;6.940;2023-04-09T13:46:54;15.13;;;12.50;;
66087;SDS011;52872;52.994;6.940;2023-04-09T13:49:21;14.77;;;12.60;;
66087;SDS011;52872;52.994;6.940;2023-04-09T13:51:48;15.32;;;12.90;;
66087;SDS011;52872;52.994;6.940;2023-04-09T13:54:16;14.93;;;12.40;;
66087;SDS011;52872;52.994;6.940;2023-04-09T13:56:44;14.75;;;13.23;;
66087;SDS011;52872;52.994;6.940;2023-04-09T13:59:11;15.80;;;13.43;;
66087;SDS011;52872;52.994;6.940;2023-04-09T14:01:38;16.27;;;14.10;;
66087;SDS011;52872;52.994;6.940;2023-04-09T14:04:06;15.07;;;12.50;;
66087;SDS011;52872;52.994;6.940;2023-04-09T14:06:33;15.15;;;13.00;;
66087;SDS011;52872;52.994;6.940;2023-04-09T14:09:00;15.75;;;13.70;;
66087;SDS011;52872;52.994;6.940;2023-04-09T14:11:27;16.88;;;13.60;;
66087;SDS011;52872;52.994;6.940;2023-04-09T14:13:54;14.95;;;12.95;;
66087;SDS011;52872;52.994;6.940;2023-04-09T14:16:21;16.75;;;13.40;;
66087;SDS011;52872;52.994;6.940;2023-04-09T14:18:49;16.80;;;12.90;;
66087;SDS011;52872;52.994;6.940;2023-04-09T14:21:16;14.70;;;12.15;;
66087;SDS011;52872;52.994;6.940;2023-04-09T14:23:43;15.07;;;13.02;;
66087;SDS011;52872;52.994;6.940;2023-04-09T14:26:11;14.15;;;12.18;;
66087;SDS011;52872;52.994;6.940;2023-04-09T14:28:38;16.95;;;13.85;;
66087;SDS011;52872;52.994;6.940;2023-04-09T14:31:05;18.13;;;14.68;;
66087;SDS011;52872;52.994;6.940;2023-04-09T14:33:32;13.95;;;11.98;;
66087;SDS011;52872;52.994;6.940;2023-04-09T14:35:59;15.73;;;13.40;;
66087;SDS011;52872;52.994;6.940;2023-04-09T14:38:26;17.98;;;15.30;;
66087;SDS011;52872;52.994;6.940;2023-04-09T14:40:53;15.00;;;12.25;;
66087;SDS011;52872;52.994;6.940;2023-04-09T14:43:20;15.48;;;11.60;;
66087;SDS011;52872;52.994;6.940;2023-04-09T14:45:47;16.08;;;13.13;;
66087;SDS011;52872;52.994;6.940;2023-04-09T14:48:14;16.35;;;13.80;;
66087;SDS011;52872;52.994;6.940;2023-04-09T14:50:41;18.45;;;15.10;;
66087;SDS011;52872;52.994;6.940;2023-04-09T14:53:08;18.02;;;14.40;;
66087;SDS011;52872;52.994;6.940;2023-04-09T14:55:36;18.58;;;15.27;;
66087;SDS011;52872;52.994;6.940;2023-04-09T14:58:04;17.05;;;15.25;;